Time;durP1;ratioP1;P1;durP2;ratioP2;P2;SDS_P1;SDS_P2;PMS_P1;PMS_P2;Temp;Humidity;BMP_temperature;BMP_pressure;BME280_temperature;BME280_humidity;BME280_pressure;Samples;Min_cycle;Max_cycle;Signal;HPM_P1;HPM_P2
2022/10/21 00:01:40;;;;;;;;;;;13.30;99.90;;;;;;4837880;29;20551;-53
2022/10/21 00:04:07;;;;;;;9.23;4.35;;;13.30;99.90;;;;;;4834593;29;19928;-55
2022/10/21 00:06:34;;;;;;;10.23;5.40;;;13.40;99.90;;;;;;4820211;29;20621;-56
2022/10/21 00:09:00;;;;;;;;;;;13.40;99.90;;;;;;4851501;29;20045;-54
2022/10/21 00:11:27;;;;;;;8.70;4.13;;;13.40;99.90;;;;;;4835845;29;19935;-56
2022/10/21 00:13:54;;;;;;;;;;;13.40;99.90;;;;;;4835916;29;20088;-55
2022/10/21 00:16:21;;;;;;;15.57;6.82;;;13.30;99.90;;;;;;4835822;29;19992;-57
2022/10/21 00:18:48;;;;;;;15.98;6.07;;;13.30;99.90;;;;;;4836635;29;20073;-55
2022/10/21 00:21:18;;;;;;;19.80;7.15;;;13.30;99.90;;;;;;4836482;29;20059;-58
2022/10/21 00:23:45;;;;;;;15.77;5.90;;;13.30;99.90;;;;;;4834500;29;20049;-57
2022/10/21 00:26:13;;;;;;;15.48;5.13;;;13.30;99.90;;;;;;4850973;29;20059;-55
2022/10/21 00:28:40;;;;;;;16.38;7.55;;;13.30;99.90;;;;;;4819397;29;20049;-57
2022/10/21 00:31:09;;;;;;;11.45;5.72;;;13.30;99.90;;;;;;4835852;29;20053;-58
2022/10/21 00:33:36;;;;;;;25.52;8.07;;;13.30;99.90;;;;;;4835503;29;20055;-54
2022/10/21 00:36:06;;;;;;;24.95;7.97;;;13.30;99.90;;;;;;4834856;29;20048;-53
2022/10/21 00:38:34;;;;;;;9.20;6.15;;;13.30;99.90;;;;;;4836233;29;20050;-54
2022/10/21 00:41:01;;;;;;;25.00;11.00;;;13.30;99.90;;;;;;4836162;29;20064;-56
2022/10/21 00:43:28;;;;;;;29.65;12.40;;;13.30;99.90;;;;;;4834954;29;20104;-57
2022/10/21 00:45:58;;;;;;;;;;;13.30;99.90;;;;;;4836951;29;20717;-51
2022/10/21 00:48:39;;;;;;;22.00;11.88;;;13.30;99.90;;;;;;4835301;29;20736;-54
2022/10/21 00:51:10;;;;;;;21.95;13.35;;;13.30;99.90;;;;;;4848851;29;20085;-56
2022/10/21 00:53:41;;;;;;;23.30;12.13;;;13.40;99.90;;;;;;4831631;29;20068;-55
2022/10/21 00:56:19;;;;;;;18.73;10.02;;;13.30;99.90;;;;;;4849917;29;20397;-55
2022/10/21 00:58:47;;;;;;;19.08;9.13;;;13.30;99.90;;;;;;4835651;29;20042;-57
2022/10/21 01:01:14;;;;;;;21.08;10.07;;;13.30;99.90;;;;;;4835367;29;20084;-54
2022/10/21 01:03:47;;;;;;;16.58;9.07;;;13.20;99.90;;;;;;4835187;29;20242;-55
2022/10/21 01:06:15;;;;;;;13.15;9.13;;;13.10;99.90;;;;;;4834604;29;20647;-57
2022/10/21 01:08:42;;;;;;;14.82;8.40;;;13.00;99.90;;;;;;4836279;29;20121;-56
2022/10/21 01:11:13;;;;;;;;;;;13.00;99.90;;;;;;4836988;29;20077;-56
2022/10/21 01:14:22;;;;;;;18.23;8.30;;;12.90;99.90;;;;;;4834139;29;19932;-56
2022/10/21 01:17:23;;;;;;;18.02;8.05;;;12.90;99.90;;;;;;4837988;29;20137;-56
2022/10/21 01:20:15;;;;;;;30.83;9.98;;;13.00;99.90;;;;;;4839006;29;20164;-55
2022/10/21 01:23:19;;;;;;;35.22;11.20;;;12.90;99.90;;;;;;4853264;29;20121;-58
2022/10/21 01:26:04;;;;;;;27.13;11.88;;;12.80;99.90;;;;;;4837970;29;20060;-54
2022/10/21 01:28:54;;;;;;;28.60;11.75;;;12.80;99.90;;;;;;4837836;29;20811;-55
2022/10/21 01:31:38;;;;;;;25.20;13.77;;;12.90;99.90;;;;;;4838686;29;20582;-53
2022/10/21 01:34:15;;;;;;;30.23;10.88;;;12.80;99.90;;;;;;4838747;29;20050;-57
2022/10/21 01:37:08;;;;;;;25.45;11.25;;;12.90;99.90;;;;;;4822030;29;20049;-54
2022/10/21 01:39:48;;;;;;;25.55;12.00;;;12.90;99.90;;;;;;4839927;29;20060;-54
2022/10/21 01:42:44;;;;;;;33.38;10.48;;;12.90;99.90;;;;;;4839124;29;20065;-55
2022/10/21 01:45:47;;;;;;;23.85;7.68;;;12.90;99.90;;;;;;4814896;29;20069;-55
2022/10/21 01:48:24;;;;;;;46.03;9.18;;;12.90;99.90;;;;;;4838849;29;20053;-56
2022/10/21 01:50:55;;;;;;;25.08;7.85;;;13.00;99.90;;;;;;4838008;29;20045;-53
2022/10/21 01:53:27;;;;;;;27.83;7.45;;;13.10;99.90;;;;;;4836460;29;20053;-56
2022/10/21 01:55:56;;;;;;;17.55;9.10;;;13.10;99.90;;;;;;4836210;29;20301;-55
2022/10/21 01:58:27;;;;;;;25.23;9.38;;;13.20;99.90;;;;;;4821895;29;20069;-56
2022/10/21 02:00:56;;;;;;;20.42;9.70;;;13.30;99.90;;;;;;4839371;29;20125;-57
2022/10/21 02:03:28;;;;;;;21.98;10.85;;;13.30;99.90;;;;;;4837247;29;20041;-55
2022/10/21 02:05:55;;;;;;;22.33;10.63;;;13.30;99.90;;;;;;4838667;29;20053;-55
2022/10/21 02:08:22;;;;;;;;;;;13.30;99.90;;;;;;4838816;29;20060;-55
2022/10/21 02:10:52;;;;;;;14.38;8.20;;;13.30;99.90;;;;;;4838991;29;20023;-57
2022/10/21 02:13:25;;;;;;;16.92;8.35;;;13.30;99.90;;;;;;4837695;29;20049;-53
2022/10/21 02:15:59;;;;;;;23.92;9.25;;;13.30;99.90;;;;;;4838477;29;20045;-54
2022/10/21 02:18:26;;;;;;;13.80;7.82;;;13.20;99.90;;;;;;4838963;29;20064;-56
2022/10/21 02:20:56;;;;;;;14.63;7.38;;;13.20;99.90;;;;;;4837905;29;20064;-57
2022/10/21 02:23:54;;;;;;;16.23;7.97;;;13.20;99.90;;;;;;4837443;29;20056;-54
2022/10/21 02:26:23;;;;;;;14.45;7.15;;;13.20;99.90;;;;;;4837775;29;20076;-56
2022/10/21 02:28:52;;;;;;;13.75;7.10;;;13.20;99.90;;;;;;4837284;29;20057;-54
2022/10/21 02:31:40;;;;;;;13.15;7.25;;;13.20;99.90;;;;;;4838579;29;20047;-53
2022/10/21 02:34:13;;;;;;;;;;;13.10;99.90;;;;;;4836888;29;20045;-52
2022/10/21 02:36:45;;;;;;;9.35;6.22;;;13.10;99.90;;;;;;4838692;29;20019;-56
2022/10/21 02:39:18;;;;;;;13.70;8.27;;;13.10;99.90;;;;;;4838157;29;20049;-57
2022/10/21 02:41:47;;;;;;;22.63;12.57;;;13.10;99.90;;;;;;4838820;29;20068;-56
2022/10/21 02:44:15;;;;;;;32.78;17.30;;;13.10;99.90;;;;;;4837746;29;20172;-56
2022/10/21 02:46:45;;;;;;;21.70;14.15;;;13.10;99.90;;;;;;4838073;29;20052;-55
2022/10/21 02:49:12;;;;;;;36.75;12.23;;;13.00;99.90;;;;;;4837474;29;20109;-57
2022/10/21 02:51:39;;;;;;;;;;;13.00;99.90;;;;;;4838346;29;20129;-55
2022/10/21 02:54:06;;;;;;;20.88;12.50;;;12.90;99.90;;;;;;4836172;29;20026;-57
2022/10/21 02:56:34;;;;;;;;;;;12.90;99.90;;;;;;4836163;29;20046;-56
2022/10/21 02:59:00;;;;;;;;;;;12.90;99.90;;;;;;4837892;29;19950;-54
2022/10/21 03:01:27;;;;;;;37.00;16.63;;;12.90;99.90;;;;;;4837588;29;19932;-56
2022/10/21 03:03:54;;;;;;;;;;;12.90;99.90;;;;;;4837129;29;20117;-57
2022/10/21 03:06:21;;;;;;;31.85;16.30;;;12.80;99.90;;;;;;4851593;29;19934;-51
2022/10/21 03:08:47;;;;;;;;;;;12.80;99.90;;;;;;4838799;29;20050;-53
2022/10/21 03:11:14;;;;;;;27.20;15.93;;;12.80;99.90;;;;;;4849572;29;19935;-57
2022/10/21 03:13:41;;;;;;;21.67;14.80;;;12.80;99.90;;;;;;4837508;29;20045;-54
2022/10/21 03:16:08;;;;;;;;;;;12.80;99.90;;;;;;4838538;29;20042;-56
2022/10/21 03:18:35;;;;;;;35.78;16.38;;;12.80;99.90;;;;;;4837113;29;19935;-57
2022/10/21 03:21:01;;;;;;;33.80;16.90;;;12.80;99.90;;;;;;4838049;29;20089;-56
2022/10/21 03:23:28;;;;;;;;;;;12.80;99.90;;;;;;4836610;29;20045;-52
2022/10/21 03:25:55;;;;;;;21.08;14.90;;;12.80;99.90;;;;;;4837821;29;19928;-53
2022/10/21 03:28:21;;;;;;;27.17;15.05;;;12.80;99.90;;;;;;4837188;29;20590;-57
2022/10/21 03:30:48;;;;;;;;;;;12.80;99.90;;;;;;4838056;29;20052;-55
2022/10/21 03:33:15;;;;;;;25.98;14.82;;;12.80;99.90;;;;;;4819612;29;19928;-55
2022/10/21 03:35:41;;;;;;;;;;;12.80;99.90;;;;;;4836753;29;20049;-54
2022/10/21 03:38:08;;;;;;;25.55;14.23;;;12.70;99.90;;;;;;4837435;29;20410;-53
2022/10/21 03:40:35;;;;;;;26.83;14.80;;;12.80;99.90;;;;;;4837588;29;21114;-53
2022/10/21 03:43:01;;;;;;;;;;;12.80;99.90;;;;;;4835888;29;20138;-55
2022/10/21 03:45:28;;;;;;;39.80;15.70;;;12.70;99.90;;;;;;4830024;29;19928;-51
2022/10/21 03:47:55;;;;;;;;;;;12.70;99.90;;;;;;4850637;29;20094;-56
2022/10/21 03:50:22;;;;;;;34.08;20.30;;;12.70;99.90;;;;;;4828820;29;19931;-55
2022/10/21 03:52:53;;;;;;;25.08;17.70;;;12.70;99.90;;;;;;4836466;29;20141;-57
2022/10/21 03:55:22;;;;;;;30.58;18.05;;;12.70;99.90;;;;;;4834328;29;20041;-55
2022/10/21 03:57:50;;;;;;;24.40;16.23;;;12.70;99.90;;;;;;4836009;29;20069;-55
2022/10/21 04:00:16;;;;;;;24.63;16.42;;;12.70;99.90;;;;;;4836422;29;20149;-57
2022/10/21 04:02:43;;;;;;;;;;;12.70;99.90;;;;;;4837093;29;20056;-53
2022/10/21 04:05:10;;;;;;;25.05;17.40;;;12.70;99.90;;;;;;4836919;29;19924;-58
2022/10/21 04:07:37;;;;;;;29.35;19.38;;;12.70;99.90;;;;;;4836534;29;20045;-57
2022/10/21 04:10:05;;;;;;;48.72;21.83;;;12.70;99.90;;;;;;4837199;29;20046;-58
2022/10/21 04:12:32;;;;;;;38.67;20.10;;;12.70;99.90;;;;;;4835508;29;20871;-55
2022/10/21 04:14:58;;;;;;;31.83;18.83;;;12.70;99.90;;;;;;4837040;29;20053;-58
2022/10/21 04:17:26;;;;;;;29.90;18.92;;;12.70;99.90;;;;;;4837066;29;20905;-55
2022/10/21 04:19:52;;;;;;;22.92;15.65;;;12.70;99.90;;;;;;4836003;29;20543;-58
2022/10/21 04:22:19;;;;;;;30.83;17.52;;;12.70;99.90;;;;;;4835861;29;20049;-56
2022/10/21 04:24:46;;;;;;;36.72;19.70;;;12.70;99.90;;;;;;4836655;29;20785;-53
2022/10/21 04:27:12;;;;;;;;;;;12.70;99.90;;;;;;4837225;29;20049;-56
2022/10/21 04:29:39;;;;;;;31.25;17.48;;;12.70;99.90;;;;;;4836933;29;19966;-56
2022/10/21 04:32:06;;;;;;;30.40;18.25;;;12.70;99.90;;;;;;4835912;29;20526;-56
2022/10/21 04:34:32;;;;;;;;;;;12.60;99.90;;;;;;4836304;29;20620;-53
2022/10/21 04:36:59;;;;;;;23.80;16.58;;;12.60;99.90;;;;;;4850041;29;20393;-56
2022/10/21 04:39:31;;;;;;;32.40;16.67;;;12.60;99.90;;;;;;4836514;29;20851;-56
2022/10/21 04:41:58;;;;;;;31.35;17.58;;;12.60;99.90;;;;;;4820321;29;20041;-53
2022/10/21 04:44:24;;;;;;;44.28;18.25;;;12.60;99.90;;;;;;4835159;29;20417;-52
2022/10/21 04:46:51;;;;;;;59.38;19.30;;;12.60;99.90;;;;;;4821156;29;20057;-54
2022/10/21 04:49:18;;;;;;;25.17;17.05;;;12.60;99.90;;;;;;4835613;29;20124;-55
2022/10/21 04:51:45;;;;;;;;;;;12.60;99.90;;;;;;4835766;29;20057;-53
2022/10/21 04:54:12;;;;;;;36.30;18.48;;;12.60;99.90;;;;;;4836249;29;20274;-59
2022/10/21 04:56:40;;;;;;;38.97;18.27;;;12.60;99.90;;;;;;4832094;29;20049;-53
2022/10/21 04:59:07;;;;;;;26.13;17.17;;;12.60;99.90;;;;;;4836204;29;20080;-57
2022/10/21 05:01:34;;;;;;;26.33;17.50;;;12.60;99.90;;;;;;4836226;29;20038;-56
2022/10/21 05:04:00;;;;;;;;;;;12.60;99.90;;;;;;4835799;29;20046;-54
2022/10/21 05:06:27;;;;;;;28.65;18.77;;;12.60;99.90;;;;;;4836383;29;19928;-53
2022/10/21 05:08:54;;;;;;;;;;;12.60;99.90;;;;;;4835811;29;20060;-53
2022/10/21 05:11:20;;;;;;;31.23;20.08;;;12.50;99.90;;;;;;4836371;29;20334;-54
2022/10/21 05:13:47;;;;;;;;;;;12.50;99.90;;;;;;4836107;29;20598;-54
2022/10/21 05:16:14;;;;;;;43.00;22.80;;;12.50;99.90;;;;;;4835118;29;20501;-55
2022/10/21 05:18:40;;;;;;;64.10;29.30;;;12.50;99.90;;;;;;4836025;29;20580;-57
2022/10/21 05:21:07;;;;;;;;;;;12.50;99.90;;;;;;4835642;29;20513;-54
2022/10/21 05:23:34;;;;;;;59.58;31.08;;;12.40;99.90;;;;;;4835745;29;20420;-57
2022/10/21 05:26:01;;;;;;;;;;;12.40;99.90;;;;;;4836515;29;20054;-54
2022/10/21 05:28:27;;;;;;;59.33;31.13;;;12.40;99.90;;;;;;4849217;29;20011;-56
2022/10/21 05:30:54;;;;;;;41.92;26.70;;;12.30;99.90;;;;;;4836205;29;20659;-61
2022/10/21 05:33:21;;;;;;;;;;;12.30;99.90;;;;;;4834445;29;20547;-53
2022/10/21 05:35:55;;;;;;;48.05;27.35;;;12.30;99.90;;;;;;4850034;29;19987;-56
2022/10/21 05:38:22;;;;;;;53.13;30.20;;;12.30;99.90;;;;;;4835299;29;20630;-54
2022/10/21 05:40:49;;;;;;;;;;;12.20;99.90;;;;;;4834857;29;20236;-58
2022/10/21 05:43:16;;;;;;;45.58;27.98;;;12.20;99.90;;;;;;4835768;29;19924;-56
2022/10/21 05:45:43;;;;;;;44.42;28.05;;;12.20;99.90;;;;;;4835557;29;20049;-56
2022/10/21 05:48:09;;;;;;;56.22;29.80;;;12.20;99.90;;;;;;4835539;29;20054;-56
2022/10/21 05:50:46;;;;;;;68.93;32.25;;;12.20;99.90;;;;;;4835776;29;20046;-57
2022/10/21 05:53:13;;;;;;;51.30;28.48;;;12.10;99.90;;;;;;4848174;29;20078;-53
2022/10/21 05:55:40;;;;;;;38.47;24.13;;;12.10;99.90;;;;;;4835057;29;20052;-58
2022/10/21 05:58:07;;;;;;;54.15;28.92;;;12.10;99.90;;;;;;4831056;29;20042;-55
2022/10/21 06:00:34;;;;;;;;;;;12.10;99.90;;;;;;4835418;29;20061;-59
2022/10/21 06:03:01;;;;;;;34.53;24.63;;;12.10;99.90;;;;;;4836509;29;20453;-53
2022/10/21 06:05:27;;;;;;;45.40;26.15;;;12.10;99.90;;;;;;4838309;29;20080;-55
2022/10/21 06:07:54;;;;;;;;;;;12.20;99.90;;;;;;4838504;29;20060;-54
2022/10/21 06:10:21;;;;;;;38.92;23.02;;;12.20;99.90;;;;;;4852059;29;20094;-54
2022/10/21 06:12:54;;;;;;;39.60;24.65;;;12.20;99.90;;;;;;4834840;29;20529;-55
2022/10/21 06:15:21;;;;;;;34.78;21.63;;;12.20;99.90;;;;;;4838745;29;20142;-54
2022/10/21 06:17:48;;;;;;;34.97;21.17;;;12.30;99.90;;;;;;4838183;29;20060;-53
2022/10/21 06:20:14;;;;;;;40.25;23.92;;;12.30;99.90;;;;;;4838948;29;20047;-56
2022/10/21 06:22:41;;;;;;;;;;;12.30;99.90;;;;;;4838790;29;20563;-53
2022/10/21 06:25:08;;;;;;;32.60;20.08;;;12.30;99.90;;;;;;4838124;29;20169;-53
2022/10/21 06:27:34;;;;;;;44.17;22.52;;;12.40;99.90;;;;;;4838709;29;20452;-57
2022/10/21 06:30:02;;;;;;;55.10;27.08;;;12.30;99.90;;;;;;4837983;29;20057;-51
2022/10/21 06:32:30;;;;;;;32.95;23.50;;;12.40;99.90;;;;;;4837953;29;20059;-55
2022/10/21 06:34:57;;;;;;;30.75;21.10;;;12.40;99.90;;;;;;4837752;29;20064;-57
2022/10/21 06:37:24;;;;;;;49.80;26.25;;;12.40;99.90;;;;;;4835558;29;20298;-57
2022/10/21 06:39:50;;;;;;;;;;;12.40;99.90;;;;;;4837905;29;20057;-54
2022/10/21 06:42:17;;;;;;;45.65;24.13;;;12.40;99.90;;;;;;4836160;29;20551;-54
2022/10/21 06:44:46;;;;;;;37.45;23.95;;;12.40;99.90;;;;;;4837410;29;20049;-52
2022/10/21 06:47:13;;;;;;;31.60;21.83;;;12.50;99.90;;;;;;4820243;29;20499;-54
2022/10/21 06:49:39;;;;;;;;;;;12.50;99.90;;;;;;4837323;29;20153;-57
2022/10/21 06:52:06;;;;;;;34.85;20.33;;;12.50;99.90;;;;;;4837555;29;20158;-55
2022/10/21 06:54:33;;;;;;;;;;;12.50;99.90;;;;;;4836680;29;20057;-55
2022/10/21 06:57:00;;;;;;;29.45;19.38;;;12.60;99.90;;;;;;4834545;29;19928;-57
2022/10/21 06:59:26;;;;;;;30.58;19.42;;;12.60;99.90;;;;;;4835213;29;20057;-58
2022/10/21 07:01:53;;;;;;;;;;;12.70;99.90;;;;;;4836866;29;20485;-56
2022/10/21 07:04:27;;;;;;;28.63;19.45;;;12.70;99.90;;;;;;4836364;29;20303;-54
2022/10/21 07:06:54;;;;;;;31.00;19.92;;;12.70;99.90;;;;;;4837035;29;20045;-52
2022/10/21 07:09:20;;;;;;;;;;;12.70;99.90;;;;;;4836699;29;20049;-56
2022/10/21 07:11:47;;;;;;;33.15;17.02;;;12.80;99.90;;;;;;4837462;29;19924;-55
2022/10/21 07:14:14;;;;;;;;;;;12.90;99.90;;;;;;4826006;29;20056;-54
2022/10/21 07:16:41;;;;;;;30.52;18.85;;;13.00;99.90;;;;;;4837361;29;19928;-56
2022/10/21 07:19:09;;;;;;;;;;;13.00;99.90;;;;;;4837986;29;20774;-56
2022/10/21 07:21:36;;;;;;;41.78;22.30;;;13.10;99.90;;;;;;4837263;29;20171;-53
2022/10/21 07:24:03;;;;;;;;;;;13.10;99.90;;;;;;4837069;29;20528;-54
2022/10/21 07:26:31;;;;;;;32.00;20.45;;;13.10;99.90;;;;;;4835539;29;19932;-55
2022/10/21 07:28:59;;;;;;;36.42;21.92;;;13.10;99.90;;;;;;4836372;29;20137;-55
2022/10/21 07:31:27;;;;;;;32.10;20.95;;;13.10;99.90;;;;;;4836329;29;20139;-57
2022/10/21 07:33:54;;;;;;;35.78;21.05;;;13.10;99.90;;;;;;4834541;29;20053;-55
2022/10/21 07:36:23;;;;;;;;;;;13.10;99.90;;;;;;4850233;29;20547;-51
2022/10/21 07:38:52;;;;;;;28.80;18.92;;;13.10;99.90;;;;;;4836320;29;19928;-56
2022/10/21 07:41:25;;;;;;;30.63;17.17;;;13.20;99.90;;;;;;4819595;29;20104;-55
2022/10/21 07:43:53;;;;;;;28.85;17.48;;;13.20;99.90;;;;;;4850192;29;20105;-56
2022/10/21 07:46:20;;;;;;;40.92;17.33;;;13.20;99.90;;;;;;4835318;29;20530;-54
2022/10/21 07:48:48;;;;;;;27.77;15.40;;;13.20;99.90;;;;;;4836631;29;20054;-55
2022/10/21 07:51:18;;;;;;;32.20;16.05;;;13.20;99.90;;;;;;4835998;29;20042;-55
2022/10/21 07:53:45;;;;;;;23.02;13.98;;;13.20;99.90;;;;;;4834640;29;20137;-54
2022/10/21 07:56:37;;;;;;;23.02;14.57;;;13.20;99.90;;;;;;4835972;29;20060;-55
2022/10/21 07:59:04;;;;;;;25.33;14.57;;;13.30;99.90;;;;;;4830288;29;20097;-56
2022/10/21 08:01:39;;;;;;;24.08;14.73;;;13.20;99.90;;;;;;4820430;29;20050;-53
2022/10/21 08:04:06;;;;;;;28.40;16.55;;;13.30;99.90;;;;;;4834908;29;20376;-54
2022/10/21 08:06:33;;;;;;;28.27;13.48;;;13.30;99.90;;;;;;4834241;29;20057;-54
2022/10/21 08:09:01;;;;;;;30.73;17.92;;;13.30;99.90;;;;;;4834662;29;20057;-52
2022/10/21 08:11:30;;;;;;;35.28;18.00;;;13.30;99.90;;;;;;4835123;29;20680;-54
2022/10/21 08:13:57;;;;;;;39.55;16.27;;;13.40;99.90;;;;;;4835425;29;20041;-53
2022/10/21 08:16:25;;;;;;;27.05;15.90;;;13.30;99.90;;;;;;4836868;29;20076;-55
2022/10/21 08:18:52;;;;;;;31.50;14.68;;;13.30;99.90;;;;;;4833900;29;20875;-53
2022/10/21 08:21:20;;;;;;;19.35;12.18;;;13.40;99.90;;;;;;4836195;29;20582;-56
2022/10/21 08:23:46;;;;;;;26.83;9.70;;;13.40;99.90;;;;;;4834885;29;20566;-56
2022/10/21 08:26:14;;;;;;;;;;;13.40;99.90;;;;;;4837380;29;20065;-57
2022/10/21 08:28:41;;;;;;;18.53;9.00;;;13.50;99.90;;;;;;4836372;29;19927;-57
2022/10/21 08:31:14;;;;;;;25.58;9.25;;;13.50;99.90;;;;;;4835869;29;20182;-57
2022/10/21 08:33:41;;;;;;;23.23;9.48;;;13.60;99.90;;;;;;4834233;29;20045;-56
2022/10/21 08:36:11;;;;;;;14.75;8.30;;;13.60;99.90;;;;;;4834984;29;20049;-55
2022/10/21 08:38:38;;;;;;;21.65;10.07;;;13.60;99.90;;;;;;4836744;29;20053;-56
2022/10/21 08:41:27;;;;;;;20.30;9.30;;;13.60;99.90;;;;;;4850324;29;20743;-56
2022/10/21 08:44:06;;;;;;;30.63;9.07;;;13.60;99.90;;;;;;4834820;29;20191;-55
2022/10/21 08:46:56;;;;;;;20.02;8.88;;;13.50;99.90;;;;;;4835990;29;20065;-52
2022/10/21 08:49:59;;;;;;;17.33;8.23;;;13.50;99.90;;;;;;4835738;29;20061;-55
2022/10/21 08:52:57;;;;;;;22.00;7.72;;;13.60;99.90;;;;;;4829416;29;20575;-55
2022/10/21 08:55:38;;;;;;;13.05;7.55;;;13.60;99.90;;;;;;4835498;29;20475;-54
2022/10/21 08:58:18;;;;;;;11.90;4.85;;;13.80;99.90;;;;;;4835090;29;20080;-57
2022/10/21 09:01:01;;;;;;;9.43;2.67;;;13.90;99.90;;;;;;4832506;29;20342;-55
2022/10/21 09:03:46;;;;;;;6.88;2.00;;;14.20;99.90;;;;;;4825050;29;20547;-52
2022/10/21 09:06:34;;;;;;;6.95;2.38;;;14.50;99.90;;;;;;4836362;29;20078;-56
2022/10/21 09:09:04;;;;;;;7.65;1.77;;;14.80;99.90;;;;;;4835950;29;20061;-58
2022/10/21 09:11:57;;;;;;;9.30;2.20;;;15.00;99.90;;;;;;4835795;29;20053;-54
2022/10/21 09:14:24;;;;;;;8.82;2.03;;;15.10;99.90;;;;;;4811034;29;20510;-57
2022/10/21 09:16:54;;;;;;;6.60;2.55;;;15.30;99.90;;;;;;4836444;29;20524;-56
2022/10/21 09:19:45;;;;;;;5.88;1.50;;;15.40;99.90;;;;;;4835274;29;20508;-60
2022/10/21 09:22:34;;;;;;;6.50;2.40;;;15.50;99.90;;;;;;4834999;29;20484;-56
2022/10/21 09:25:19;;;;;;;6.55;1.55;;;15.50;99.90;;;;;;4835218;29;20145;-56
2022/10/21 09:27:47;;;;;;;4.45;1.65;;;15.60;99.90;;;;;;4824360;29;20064;-56
2022/10/21 09:30:23;;;;;;;5.80;2.20;;;15.60;99.90;;;;;;4823259;29;20051;-56
2022/10/21 09:32:56;;;;;;;4.60;2.65;;;15.60;99.90;;;;;;4823796;29;20588;-54
2022/10/21 09:35:27;;;;;;;18.52;3.90;;;15.70;99.90;;;;;;4824875;29;20045;-56
2022/10/21 09:38:02;;;;;;;8.32;4.65;;;15.60;99.90;;;;;;4829360;29;20705;-54
2022/10/21 09:40:30;;;;;;;9.18;5.10;;;15.60;99.90;;;;;;4839168;29;20121;-56
2022/10/21 09:42:58;;;;;;;12.05;6.07;;;15.60;99.90;;;;;;4838835;29;20835;-58
2022/10/21 09:45:33;;;;;;;12.90;6.97;;;15.50;99.90;;;;;;4835175;29;20049;-56
2022/10/21 09:48:24;;;;;;;12.43;6.57;;;15.50;99.90;;;;;;4839636;29;20405;-58
2022/10/21 09:50:59;;;;;;;11.65;6.32;;;15.50;99.90;;;;;;4837719;29;20140;-56
2022/10/21 09:53:34;;;;;;;10.85;5.13;;;15.40;99.90;;;;;;4838170;29;20049;-56
2022/10/21 09:56:20;;;;;;;11.68;6.00;;;15.40;99.90;;;;;;4837811;29;20152;-54
2022/10/21 09:59:06;;;;;;;14.05;5.38;;;15.40;99.90;;;;;;4836784;29;20508;-54
2022/10/21 10:01:35;;;;;;;7.05;4.70;;;15.40;99.90;;;;;;4828033;29;20514;-56
2022/10/21 10:04:32;;;;;;;9.57;5.07;;;15.40;99.90;;;;;;4839193;29;20496;-58
2022/10/21 10:07:26;;;;;;;11.27;5.57;;;15.50;99.90;;;;;;4841166;29;20060;-55
2022/10/21 10:09:53;;;;;;;10.00;4.72;;;15.50;99.90;;;;;;4824153;29;20086;-55
2022/10/21 10:12:22;;;;;;;;;;;15.40;99.90;;;;;;4844255;29;20063;-64
2022/10/21 10:14:49;;;;;;;9.52;4.22;;;15.40;99.90;;;;;;4837796;29;19954;-55
2022/10/21 10:17:31;;;;;;;8.50;4.00;;;15.40;99.90;;;;;;4837767;29;20273;-57
2022/10/21 10:20:03;;;;;;;12.55;4.30;;;15.40;99.90;;;;;;4837817;29;20137;-55
2022/10/21 10:22:36;;;;;;;5.15;3.53;;;15.40;99.90;;;;;;4850374;29;20072;-54
2022/10/21 10:25:16;;;;;;;6.68;3.38;;;15.40;99.90;;;;;;4838192;29;20057;-57
2022/10/21 10:27:53;;;;;;;15.70;3.58;;;15.40;99.90;;;;;;4838140;29;20534;-58
2022/10/21 10:30:22;;;;;;;4.03;2.75;;;15.30;99.90;;;;;;4838106;29;20049;-57
2022/10/21 10:32:51;;;;;;;7.57;2.92;;;15.30;99.90;;;;;;4837689;29;20611;-58
2022/10/21 10:35:25;;;;;;;5.88;2.70;;;15.30;99.90;;;;;;4837268;29;20117;-57
2022/10/21 10:37:52;;;;;;;9.18;3.42;;;15.20;99.90;;;;;;4838508;29;20081;-56
2022/10/21 10:40:25;;;;;;;8.93;3.78;;;15.20;99.90;;;;;;4836653;29;20064;-55
2022/10/21 10:43:00;;;;;;;4.63;2.58;;;15.20;99.90;;;;;;4836778;29;20050;-57
2022/10/21 10:45:28;;;;;;;9.75;3.53;;;15.20;99.90;;;;;;4838607;29;20157;-54
2022/10/21 10:48:02;;;;;;;10.65;3.38;;;15.20;99.90;;;;;;4835584;29;20073;-54
2022/10/21 10:50:48;;;;;;;5.93;3.75;;;15.20;99.90;;;;;;4838047;29;20652;-55
2022/10/21 10:53:20;;;;;;;6.20;3.20;;;15.20;99.90;;;;;;4838878;29;20063;-55
2022/10/21 10:55:55;;;;;;;4.72;3.47;;;15.10;99.90;;;;;;4837487;29;20140;-55
2022/10/21 10:58:25;;;;;;;4.45;2.80;;;15.10;99.90;;;;;;4837385;29;20057;-54
2022/10/21 11:00:58;;;;;;;6.65;3.45;;;15.10;99.90;;;;;;4835007;29;20041;-58
2022/10/21 11:03:41;;;;;;;5.35;2.72;;;15.10;99.90;;;;;;4835419;29;20049;-57
2022/10/21 11:06:24;;;;;;;6.95;2.70;;;15.10;99.90;;;;;;4834614;29;20057;-58
2022/10/21 11:08:55;;;;;;;4.47;2.40;;;15.10;99.90;;;;;;4837351;29;20053;-55
2022/10/21 11:11:29;;;;;;;8.00;3.22;;;15.10;99.90;;;;;;4837578;29;20045;-56
2022/10/21 11:13:56;;;;;;;11.15;4.20;;;15.10;99.90;;;;;;4836711;29;20057;-63
2022/10/21 11:16:26;;;;;;;10.50;4.38;;;15.20;99.90;;;;;;4837961;29;20060;-56
2022/10/21 11:19:08;;;;;;;5.35;3.00;;;15.20;99.90;;;;;;4837497;29;20130;-54
2022/10/21 11:21:44;;;;;;;5.50;3.13;;;15.20;99.90;;;;;;4839821;29;20109;-56
2022/10/21 11:24:32;;;;;;;8.77;3.63;;;15.20;99.90;;;;;;4838901;29;20148;-57
2022/10/21 11:27:00;;;;;;;;;;;15.20;99.90;;;;;;4840397;29;20738;-57
2022/10/21 11:29:33;;;;;;;6.25;3.30;;;15.20;99.90;;;;;;4839625;29;20027;-54
2022/10/21 11:32:27;;;;;;;7.57;4.05;;;15.20;99.90;;;;;;4838910;29;20109;-57
2022/10/21 11:35:00;;;;;;;9.25;5.22;;;15.30;99.90;;;;;;4838787;29;20101;-53
2022/10/21 11:37:44;;;;;;;6.00;3.53;;;15.30;99.90;;;;;;4838095;29;20114;-55
2022/10/21 11:40:37;;;;;;;5.50;3.85;;;15.30;99.90;;;;;;4839448;29;20718;-56
2022/10/21 11:43:32;;;;;;;6.97;4.13;;;15.30;99.90;;;;;;4838628;29;20050;-55
2022/10/21 11:46:14;;;;;;;7.68;4.45;;;15.30;99.90;;;;;;4839243;29;20770;-55
2022/10/21 11:49:03;;;;;;;10.18;4.32;;;15.40;99.90;;;;;;4839628;29;20072;-56
2022/10/21 11:51:35;;;;;;;9.68;4.45;;;15.40;99.90;;;;;;4837090;29;20045;-54
2022/10/21 11:54:20;;;;;;;8.77;4.32;;;15.40;99.90;;;;;;4851612;29;20042;-55
2022/10/21 11:57:04;;;;;;;10.98;4.10;;;15.50;99.90;;;;;;4837689;29;20045;-55
2022/10/21 11:59:52;;;;;;;8.05;3.58;;;15.50;99.90;;;;;;4833842;29;20056;-55
2022/10/21 12:02:31;;;;;;;5.10;3.60;;;15.50;99.90;;;;;;4837025;29;20389;-55
2022/10/21 12:05:07;;;;;;;6.57;2.65;;;15.60;99.90;;;;;;4837169;29;20046;-55
2022/10/21 12:07:56;;;;;;;6.90;2.72;;;15.60;99.90;;;;;;4839340;29;20077;-54
2022/10/21 12:10:29;;;;;;;8.95;2.42;;;15.60;99.90;;;;;;4837543;29;20082;-53
2022/10/21 12:13:01;;;;;;;5.57;2.40;;;15.60;99.90;;;;;;4837948;29;20125;-56
2022/10/21 12:15:54;;;;;;;4.00;2.17;;;15.60;99.90;;;;;;4835933;29;20053;-59
2022/10/21 12:18:22;;;;;;;5.03;1.77;;;15.60;99.90;;;;;;4837241;29;20074;-57
2022/10/21 12:20:53;;;;;;;2.67;2.00;;;15.60;99.90;;;;;;4838165;29;20055;-60
2022/10/21 12:23:25;;;;;;;8.18;2.40;;;15.60;99.90;;;;;;4835493;29;20057;-57
2022/10/21 12:26:18;;;;;;;4.20;2.13;;;15.60;99.90;;;;;;4838565;29;20084;-59
2022/10/21 12:28:58;;;;;;;4.32;1.83;;;15.60;99.90;;;;;;4831817;29;20866;-57
2022/10/21 12:31:31;;;;;;;6.38;1.95;;;15.70;99.90;;;;;;4835647;29;20682;-56
2022/10/21 12:33:58;;;;;;;3.05;1.77;;;15.60;99.90;;;;;;4833233;29;20054;-59
2022/10/21 12:36:38;;;;;;;4.50;2.10;;;15.60;99.90;;;;;;4839087;29;20063;-53
2022/10/21 12:39:31;;;;;;;3.08;2.40;;;15.60;99.90;;;;;;4839550;29;20046;-59
2022/10/21 12:42:10;;;;;;;6.72;3.20;;;15.60;99.90;;;;;;4838194;29;20041;-55
2022/10/21 12:44:39;;;;;;;7.38;3.05;;;15.60;99.90;;;;;;4836835;29;20089;-59
2022/10/21 12:47:29;;;;;;;10.02;3.90;;;15.60;99.90;;;;;;4837230;29;20516;-57
2022/10/21 12:50:15;;;;;;;7.50;3.22;;;15.60;99.90;;;;;;4838428;29;20105;-55
2022/10/21 12:52:44;;;;;;;3.50;2.40;;;15.60;99.90;;;;;;4837429;29;20077;-55
2022/10/21 12:55:26;;;;;;;5.60;2.45;;;15.60;99.90;;;;;;4838569;29;20503;-56
2022/10/21 12:58:00;;;;;;;5.20;2.92;;;15.70;99.90;;;;;;4838434;29;20063;-58
2022/10/21 13:00:27;;;;;;;8.90;3.92;;;15.70;99.90;;;;;;4836512;29;20054;-55
2022/10/21 13:02:57;;;;;;;11.48;4.43;;;15.80;99.90;;;;;;4836815;29;20172;-57
2022/10/21 13:05:36;;;;;;;6.20;4.13;;;15.80;99.90;;;;;;4835402;29;20672;-55
2022/10/21 13:08:27;;;;;;;11.63;5.10;;;15.80;99.90;;;;;;4837875;29;20540;-55
2022/10/21 13:11:05;;;;;;;8.65;4.15;;;15.90;99.90;;;;;;4837612;29;20089;-55
2022/10/21 13:13:46;;;;;;;9.05;4.00;;;15.90;99.90;;;;;;4840065;29;20615;-58
2022/10/21 13:16:19;;;;;;;7.13;3.65;;;15.90;99.90;;;;;;4841528;29;20050;-59